Time;durP1;ratioP1;P1;durP2;ratioP2;P2;SDS_P1;SDS_P2;PMS_P1;PMS_P2;Temp;Humidity;BMP_temperature;BMP_pressure;BME280_temperature;BME280_humidity;BME280_pressure;Samples;Min_cycle;Max_cycle;Signal;HPM_P1;HPM_P2
2022/06/13 00:02:21;;;;;;;;;;;;;;;16.08;95.01;95185.97;5093882;28;1669;-51
2022/06/13 00:04:48;;;;;;;;;;;;;;;15.83;94.86;95182.84;5092260;28;1119;-51
2022/06/13 00:07:15;;;;;;;;;;;;;;;15.92;94.89;95181.69;5075541;28;1797;-51
2022/06/13 00:09:41;;;;;;;;;;;;;;;15.94;95.44;95191.22;5070956;28;1906;-51
2022/06/13 00:12:08;;;;;;;;;;;;;;;15.87;95.44;95182.25;5072037;28;1005;-51
2022/06/13 00:14:34;;;;;;;;;;;;;;;15.93;95.85;95180.63;5071919;28;1053;-51
2022/06/13 00:17:01;;;;;;;;;;;;;;;16.05;95.26;95181.78;5073587;28;1047;-51
2022/06/13 00:19:27;;;;;;;;;;;;;;;15.98;95.32;95178.19;5071887;28;1044;-51
2022/06/13 00:21:53;;;;;;;;;;;;;;;15.96;95.15;95177.56;5072201;28;1004;-51
2022/06/13 00:24:19;;;;;;;;;;;;;;;15.96;95.63;95185.66;5072871;28;1080;-51
2022/06/13 00:26:46;;;;;;;;;;;;;;;15.95;95.70;95181.28;5072998;28;1083;-51
2022/06/13 00:29:12;;;;;;;;;;;;;;;15.92;95.16;95187.06;5071925;28;1914;-51
2022/06/13 00:31:38;;;;;;;;;;;;;;;15.81;93.84;95183.84;5072108;28;1516;-51
2022/06/13 00:34:05;;;;;;;;;;;;;;;15.72;94.67;95174.19;5071982;28;1754;-51
2022/06/13 00:36:31;;;;;;;;;;;;;;;15.71;94.97;95174.41;5055551;28;1529;-51
2022/06/13 00:38:58;;;;;;;;;;;;;;;15.83;94.49;95178.28;5071971;28;1812;-51
2022/06/13 00:41:26;;;;;;;;;;;;;;;15.70;94.59;95176.25;5071816;28;1041;-51
2022/06/13 00:43:53;;;;;;;;;;;;;;;15.58;94.10;95167.84;5072873;28;1104;-51
2022/06/13 00:46:24;;;;;;;;;;;;;;;15.57;94.98;95170.72;5073318;28;1088;-51
2022/06/13 00:48:53;;;;;;;;;;;;;;;15.57;95.02;95166.16;5072827;28;1975;-51
2022/06/13 00:51:19;;;;;;;;;;;;;;;15.55;95.20;95167.38;5071845;28;1061;-51
2022/06/13 00:53:46;;;;;;;;;;;;;;;15.54;94.76;95176.50;5072577;28;1012;-51
2022/06/13 00:56:14;;;;;;;;;;;;;;;15.46;95.16;95177.47;5073037;28;1939;-51
2022/06/13 00:58:45;;;;;;;;;;;;;;;15.45;95.35;95180.34;5073002;28;1554;-51
2022/06/13 01:01:11;;;;;;;;;;;;;;;15.40;95.87;95178.19;5073053;28;1023;-51
2022/06/13 01:03:37;;;;;;;;;;;;;;;15.34;95.17;95171.72;5071583;28;1095;-51
2022/06/13 01:06:05;;;;;;;;;;;;;;;15.26;94.72;95171.00;5062237;28;1543;-51
2022/06/13 01:08:32;;;;;;;;;;;;;;;15.31;95.59;95164.03;5092744;28;1211;-51
2022/06/13 01:11:16;;;;;;;;;;;;;;;15.31;95.33;95155.94;5092714;28;1983;-51
2022/06/13 01:13:42;;;;;;;;;;;;;;;15.22;93.70;95155.22;5092899;28;910;-51
2022/06/13 01:16:09;;;;;;;;;;;;;;;15.02;94.38;95156.84;5092778;28;1091;-51
2022/06/13 01:18:38;;;;;;;;;;;;;;;14.91;95.16;95163.56;5092888;28;1029;-51
2022/06/13 01:21:04;;;;;;;;;;;;;;;14.93;95.94;95163.34;5093073;28;1857;-51
2022/06/13 01:23:46;;;;;;;;;;;;;;;15.01;97.03;95172.16;5096270;28;1064;-51
2022/06/13 01:26:18;;;;;;;;;;;;;;;15.00;96.42;95186.63;5096397;28;1049;-51
2022/06/13 01:28:47;;;;;;;;;;;;;;;15.21;94.77;95175.13;5096529;28;949;-52
2022/06/13 01:31:24;;;;;;;;;;;;;;;15.31;95.26;95174.81;5112218;28;1574;-51
2022/06/13 01:33:53;;;;;;;;;;;;;;;15.48;95.11;95178.09;5095450;28;1028;-51
2022/06/13 01:36:29;;;;;;;;;;;;;;;15.42;95.11;95187.78;5096332;28;945;-51
2022/06/13 01:39:11;;;;;;;;;;;;;;;15.31;95.40;95185.59;5096365;28;1083;-51
2022/06/13 01:41:37;;;;;;;;;;;;;;;15.32;94.90;95187.22;5095974;28;1874;-51
2022/06/13 01:44:21;;;;;;;;;;;;;;;15.27;95.17;95189.69;5096163;28;1024;-51
2022/06/13 01:46:56;;;;;;;;;;;;;;;15.30;95.60;95199.25;5096550;28;1055;-51
2022/06/13 01:49:38;;;;;;;;;;;;;;;15.31;95.15;95188.28;5096043;28;1991;-51
2022/06/13 01:52:11;;;;;;;;;;;;;;;15.27;96.21;95178.06;5095908;28;1078;-51
2022/06/13 01:54:50;;;;;;;;;;;;;;;15.45;95.45;95191.94;5094910;28;992;-52
2022/06/13 01:57:39;;;;;;;;;;;;;;;15.48;95.36;95185.34;5078173;28;1716;-51
2022/06/13 02:00:13;;;;;;;;;;;;;;;15.48;94.73;95182.63;5095918;28;975;-51
2022/06/13 02:02:40;;;;;;;;;;;;;;;15.43;96.13;95191.31;5095770;28;1110;-51
2022/06/13 02:05:15;;;;;;;;;;;;;;;15.38;96.43;95189.16;5111647;28;1527;-51
2022/06/13 02:07:46;;;;;;;;;;;;;;;15.37;95.20;95189.38;5074237;28;1005;-51
2022/06/13 02:10:17;;;;;;;;;;;;;;;15.19;95.54;95193.28;5075133;28;1910;-51
2022/06/13 02:12:47;;;;;;;;;;;;;;;15.27;95.32;95192.38;5075470;28;1029;-51
2022/06/13 02:15:17;;;;;;;;;;;;;;;15.39;95.19;95190.84;5075207;28;1100;-51
2022/06/13 02:17:49;;;;;;;;;;;;;;;15.29;97.13;95193.03;5074338;28;962;-51
2022/06/13 02:20:19;;;;;;;;;;;;;;;15.35;96.60;95178.78;5075162;28;1116;-51
2022/06/13 02:22:51;;;;;;;;;;;;;;;15.43;96.23;95180.53;5075295;28;1006;-51
2022/06/13 02:25:20;;;;;;;;;;;;;;;15.39;96.63;95182.75;5074987;28;1850;-51
2022/06/13 02:27:55;;;;;;;;;;;;;;;15.37;95.97;95181.28;5074961;28;1032;-50
2022/06/13 02:30:26;;;;;;;;;;;;;;;15.29;96.49;95195.72;5075254;28;1905;-51
2022/06/13 02:33:03;;;;;;;;;;;;;;;15.28;96.54;95190.50;5074204;28;1973;-51
2022/06/13 02:35:35;;;;;;;;;;;;;;;15.20;97.04;95183.38;5075025;28;1037;-51
2022/06/13 02:38:04;;;;;;;;;;;;;;;15.39;96.31;95185.47;5073755;28;1088;-51
2022/06/13 02:40:45;;;;;;;;;;;;;;;15.47;96.90;95183.69;5074779;28;1096;-51
2022/06/13 02:43:15;;;;;;;;;;;;;;;15.45;96.80;95185.72;5075114;28;1088;-51
2022/06/13 02:45:46;;;;;;;;;;;;;;;15.30;96.29;95191.97;5074796;28;1016;-51
2022/06/13 02:48:31;;;;;;;;;;;;;;;15.32;96.59;95195.31;5073586;28;1065;-52
2022/06/13 02:51:05;;;;;;;;;;;;;;;15.26;97.32;95190.69;5073241;28;1973;-51
2022/06/13 02:53:43;;;;;;;;;;;;;;;15.35;97.41;95197.66;5074418;28;1037;-51
2022/06/13 02:56:09;;;;;;;;;;;;;;;15.38;97.20;95193.72;5074330;28;1025;-51
2022/06/13 02:58:42;;;;;;;;;;;;;;;15.39;97.23;95198.09;5074405;28;1008;-51
2022/06/13 03:01:16;;;;;;;;;;;;;;;15.36;97.50;95204.69;5074418;28;973;-51
2022/06/13 03:03:51;;;;;;;;;;;;;;;15.21;97.49;95211.97;5073167;28;1084;-50
2022/06/13 03:06:31;;;;;;;;;;;;;;;15.31;97.64;95208.97;5092484;28;1154;-51
2022/06/13 03:08:59;;;;;;;;;;;;;;;15.41;97.99;95215.75;5114729;28;1918;-51
2022/06/13 03:11:28;;;;;;;;;;;;;;;15.69;96.59;95220.41;5114616;28;1083;-51
2022/06/13 03:14:10;;;;;;;;;;;;;;;15.70;97.10;95219.38;5114747;28;1024;-51
2022/06/13 03:16:55;;;;;;;;;;;;;;;15.66;97.88;95217.25;5114584;28;1036;-51
2022/06/13 03:19:21;;;;;;;;;;;;;;;15.60;96.32;95218.84;5114827;28;1032;-51
2022/06/13 03:21:49;;;;;;;;;;;;;;;15.66;96.80;95211.88;5114568;28;1088;-51
2022/06/13 03:24:15;;;;;;;;;;;;;;;15.71;97.74;95214.84;5114389;28;1082;-51
2022/06/13 03:26:44;;;;;;;;;;;;;;;15.65;98.17;95215.56;5114350;28;1032;-51
2022/06/13 03:29:22;;;;;;;;;;;;;;;15.61;96.97;95217.81;5114686;28;1988;-51
2022/06/13 03:31:50;;;;;;;;;;;;;;;15.57;98.06;95219.22;5114405;28;2030;-51
2022/06/13 03:34:19;;;;;;;;;;;;;;;15.67;98.54;95219.78;5113525;28;1483;-51
2022/06/13 03:36:53;;;;;;;;;;;;;;;15.76;98.14;95229.44;5114122;28;1024;-51
2022/06/13 03:39:25;;;;;;;;;;;;;;;15.86;98.05;95222.88;5114660;28;1067;-51
2022/06/13 03:42:18;;;;;;;;;;;;;;;15.81;97.80;95231.53;5114360;28;994;-51
2022/06/13 03:44:47;;;;;;;;;;;;;;;15.73;97.80;95226.25;5110566;28;1821;-52
2022/06/13 03:47:16;;;;;;;;;;;;;;;15.82;97.71;95230.50;5114088;28;1012;-51
2022/06/13 03:49:46;;;;;;;;;;;;;;;15.90;98.29;95233.09;5114343;28;1890;-51
2022/06/13 03:52:13;;;;;;;;;;;;;;;15.92;98.64;95227.53;5096297;28;1568;-51
2022/06/13 03:54:43;;;;;;;;;;;;;;;16.09;97.18;95228.91;5114051;28;1040;-50
2022/06/13 03:57:15;;;;;;;;;;;;;;;16.14;98.33;95229.19;5114009;28;1071;-51
2022/06/13 03:59:50;;;;;;;;;;;;;;;16.18;98.12;95232.31;5114006;28;1051;-51
2022/06/13 04:02:18;;;;;;;;;;;;;;;16.25;97.88;95233.19;5112990;28;945;-51
2022/06/13 04:04:46;;;;;;;;;;;;;;;16.31;97.08;95218.09;5114169;28;1827;-50
2022/06/13 04:07:13;;;;;;;;;;;;;;;16.39;96.79;95228.78;5078932;28;1149;-51
2022/06/13 04:09:39;;;;;;;;;;;;;;;16.47;96.07;95214.31;5071917;28;1983;-51
2022/06/13 04:12:16;;;;;;;;;;;;;;;16.45;96.74;95225.28;5073291;28;1044;-51
2022/06/13 04:15:00;;;;;;;;;;;;;;;16.46;96.98;95218.00;5073777;28;976;-50
2022/06/13 04:17:34;;;;;;;;;;;;;;;16.54;96.34;95215.16;5073038;28;1116;-50
2022/06/13 04:20:15;;;;;;;;;;;;;;;16.61;97.25;95220.63;5073471;28;965;-51
2022/06/13 04:22:47;;;;;;;;;;;;;;;16.65;97.51;95227.28;5072983;28;1028;-51
2022/06/13 04:25:16;;;;;;;;;;;;;;;16.71;97.90;95226.50;5073061;28;1028;-51
2022/06/13 04:27:48;;;;;;;;;;;;;;;16.68;98.45;95229.59;5073168;28;1036;-51
2022/06/13 04:30:16;;;;;;;;;;;;;;;16.72;97.57;95225.47;5073241;28;1906;-51
2022/06/13 04:32:46;;;;;;;;;;;;;;;16.84;97.53;95232.00;5073046;28;1039;-51
2022/06/13 04:35:13;;;;;;;;;;;;;;;16.91;97.56;95232.06;5073153;28;1057;-51
2022/06/13 04:37:40;;;;;;;;;;;;;;;16.93;96.24;95230.00;5071947;28;1063;-51
2022/06/13 04:40:08;;;;;;;;;;;;;;;17.10;95.83;95233.22;5072142;28;988;-51
2022/06/13 04:42:37;;;;;;;;;;;;;;;17.23;96.23;95230.56;5071936;28;1796;-51
2022/06/13 04:45:13;;;;;;;;;;;;;;;17.33;96.74;95232.91;5073089;28;1003;-51
2022/06/13 04:47:39;;;;;;;;;;;;;;;17.49;95.15;95240.69;5071896;28;1707;-51
2022/06/13 04:50:06;;;;;;;;;;;;;;;17.94;93.81;95241.03;5071744;28;2004;-51
2022/06/13 04:52:35;;;;;;;;;;;;;;;18.38;91.57;95246.94;5073107;28;1031;-51
2022/06/13 04:55:27;;;;;;;;;;;;;;;18.57;90.58;95242.56;5072576;28;1087;-51
2022/06/13 04:57:53;;;;;;;;;;;;;;;18.46;88.42;95238.63;5074250;28;1432;-51
2022/06/13 05:00:20;;;;;;;;;;;;;;;18.46;89.31;95233.19;5076746;28;1040;-50
2022/06/13 05:02:49;;;;;;;;;;;;;;;18.44;89.76;95240.69;5076907;28;1140;-52
2022/06/13 05:05:38;;;;;;;;;;;;;;;18.31;89.76;95236.09;5077524;28;1498;-51
2022/06/13 05:08:34;;;;;;;;;;;;;;;18.42;88.59;95239.22;5078980;28;1293;-52
2022/06/13 05:11:15;;;;;;;;;;;;;;;18.36;90.03;95240.88;5100446;28;1906;-52
2022/06/13 05:13:41;;;;;;;;;;;;;;;18.37;90.83;95241.75;5117258;28;1042;-52
2022/06/13 05:16:23;;;;;;;;;;;;;;;18.30;91.76;95247.13;5116193;28;980;-51
2022/06/13 05:18:49;;;;;;;;;;;;;;;18.28;92.83;95250.03;5116974;28;1099;-52
2022/06/13 05:21:33;;;;;;;;;;;;;;;18.14;93.05;95245.66;5117243;28;1684;-52
2022/06/13 05:24:19;;;;;;;;;;;;;;;18.22;93.35;95250.06;5116950;28;1035;-51
2022/06/13 05:26:46;;;;;;;;;;;;;;;18.63;91.82;95243.59;5116920;28;1877;-51
2022/06/13 05:29:12;;;;;;;;;;;;;;;19.04;89.58;95247.97;5115578;28;1902;-51
2022/06/13 05:31:38;;;;;;;;;;;;;;;19.22;89.03;95240.00;5115615;28;1016;-51
2022/06/13 05:34:20;;;;;;;;;;;;;;;19.54;87.60;95236.56;5116689;28;2044;-51
2022/06/13 05:36:46;;;;;;;;;;;;;;;19.49;89.88;95245.34;5115514;28;1023;-51
2022/06/13 05:39:12;;;;;;;;;;;;;;;19.37;89.80;95249.75;5116673;28;929;-51
2022/06/13 05:41:38;;;;;;;;;;;;;;;19.20;90.30;95247.53;5116685;28;1036;-51
2022/06/13 05:44:05;;;;;;;;;;;;;;;19.28;90.24;95244.56;5115147;28;1056;-51
2022/06/13 05:46:36;;;;;;;;;;;;;;;19.39;89.75;95234.94;5116572;28;1253;-51
2022/06/13 05:49:03;;;;;;;;;;;;;;;19.37;89.01;95231.63;5098275;28;2554;-51
2022/06/13 05:51:30;;;;;;;;;;;;;;;19.39;88.47;95226.81;5115460;28;995;-51
2022/06/13 05:53:59;;;;;;;;;;;;;;;19.50;90.74;95228.88;5116117;28;1032;-51
2022/06/13 05:56:25;;;;;;;;;;;;;;;19.80;90.02;95228.31;5116469;28;988;-51
2022/06/13 05:58:52;;;;;;;;;;;;;;;19.82;90.36;95231.66;5116273;28;1020;-51
2022/06/13 06:01:18;;;;;;;;;;;;;;;19.65;90.55;95234.03;5098429;28;1585;-51
2022/06/13 06:03:45;;;;;;;;;;;;;;;19.77;89.70;95242.34;5116411;28;1616;-51
2022/06/13 06:06:12;;;;;;;;;;;;;;;19.96;88.06;95239.75;5107912;28;1149;-51
2022/06/13 06:08:39;;;;;;;;;;;;;;;20.14;87.61;95228.97;5094433;28;1270;-51
2022/06/13 06:33:10;;;;;;;;;;;;;;;20.64;87.13;95245.34;4282189;27;1533643;-50
2022/06/13 06:35:36;;;;;;;;;;;;;;;21.19;86.06;95250.06;5131463;28;1011;-51
2022/06/13 06:38:02;;;;;;;;;;;;;;;21.51;83.85;95241.78;5131639;28;960;-50
2022/06/13 06:40:29;;;;;;;;;;;;;;;21.70;82.26;95239.03;5131269;28;1098;-51
2022/06/13 06:42:55;;;;;;;;;;;;;;;21.74;84.08;95237.53;5131405;28;1024;-51
2022/06/13 06:45:22;;;;;;;;;;;;;;;21.72;81.86;95237.78;5131435;28;1075;-51
2022/06/13 06:47:48;;;;;;;;;;;;;;;21.62;84.93;95238.28;5131448;28;1938;-51
2022/06/13 06:50:16;;;;;;;;;;;;;;;21.75;84.48;95231.88;5131317;28;984;-51
2022/06/13 06:52:43;;;;;;;;;;;;;;;21.91;83.29;95229.56;5131037;28;1313;-51
2022/06/13 07:00:43;;;;;;;;;;;;;;;22.71;80.30;95226.50;5130818;28;1049;-51
2022/06/13 07:03:09;;;;;;;;;;;;;;;22.99;77.60;95222.25;5131065;28;952;-51
2022/06/13 07:05:35;;;;;;;;;;;;;;;23.13;76.66;95231.06;5130652;28;1178;-51
2022/06/13 07:08:01;;;;;;;;;;;;;;;23.27;77.02;95218.00;5130836;28;2019;-51
2022/06/13 07:10:27;;;;;;;;;;;;;;;23.31;76.18;95217.28;5130787;28;1116;-51
2022/06/13 07:12:53;;;;;;;;;;;;;;;23.41;76.01;95224.03;5131068;28;1079;-51
2022/06/13 07:15:19;;;;;;;;;;;;;;;23.57;75.88;95229.56;5130817;28;962;-51
2022/06/13 07:17:45;;;;;;;;;;;;;;;23.59;74.71;95232.88;5130811;28;958;-51
2022/06/13 07:20:12;;;;;;;;;;;;;;;23.49;74.56;95224.50;5130664;28;1043;-51
2022/06/13 07:22:44;;;;;;;;;;;;;;;23.28;74.05;95220.50;5130552;28;972;-51
2022/06/13 07:25:13;;;;;;;;;;;;;;;23.31;75.16;95211.81;5130404;28;1237;-51
2022/06/13 07:27:39;;;;;;;;;;;;;;;23.49;74.07;95216.31;5130432;28;2004;-51
2022/06/13 07:30:05;;;;;;;;;;;;;;;23.37;75.12;95215.47;5130794;28;1064;-51
2022/06/13 07:32:31;;;;;;;;;;;;;;;23.56;75.49;95207.97;5122385;28;1088;-51
2022/06/13 07:34:59;;;;;;;;;;;;;;;23.67;72.34;95212.56;5109994;28;1028;-51
2022/06/13 07:40:11;;;;;;;;;;;;;;;23.94;72.74;95210.16;5102396;28;1027;-51
2022/06/13 07:42:46;;;;;;;;;;;;;;;24.08;71.45;95209.88;5096045;28;1036;-51
2022/06/13 07:45:15;;;;;;;;;;;;;;;24.08;71.96;95210.69;5096381;28;966;-51
2022/06/13 07:47:42;;;;;;;;;;;;;;;24.16;71.46;95212.19;5095795;28;1909;-52
2022/06/13 07:50:08;;;;;;;;;;;;;;;24.25;70.75;95208.00;5096460;28;984;-51
2022/06/13 07:52:34;;;;;;;;;;;;;;;24.30;68.88;95210.81;5096037;28;1027;-51
2022/06/13 07:55:00;;;;;;;;;;;;;;;24.31;68.59;95209.72;5096090;28;984;-51
2022/06/13 07:57:26;;;;;;;;;;;;;;;24.37;68.52;95210.66;5095811;28;1030;-51
2022/06/13 07:59:52;;;;;;;;;;;;;;;24.46;66.59;95216.56;5095981;28;980;-52
2022/06/13 08:02:34;;;;;;;;;;;;;;;24.48;66.29;95212.50;5095703;28;899;-52
2022/06/13 08:05:00;;;;;;;;;;;;;;;24.57;67.18;95209.38;5095880;28;1032;-51
2022/06/13 08:07:27;;;;;;;;;;;;;;;24.58;67.63;95209.13;5076665;28;2044;-51
2022/06/13 08:09:53;;;;;;;;;;;;;;;24.63;67.13;95211.13;5075681;28;992;-51
2022/06/13 08:12:20;;;;;;;;;;;;;;;24.75;68.63;95211.88;5075495;28;1052;-52
2022/06/13 08:14:47;;;;;;;;;;;;;;;24.88;65.74;95218.91;5075309;28;1323;-52
2022/06/13 08:17:14;;;;;;;;;;;;;;;24.85;65.29;95213.94;5075503;28;1032;-52
2022/06/13 08:19:40;;;;;;;;;;;;;;;24.90;64.96;95208.56;5075530;28;1064;-51
2022/06/13 08:22:06;;;;;;;;;;;;;;;24.93;65.55;95208.06;5075318;28;973;-52
2022/06/13 08:24:33;;;;;;;;;;;;;;;25.02;66.49;95206.53;5075076;28;958;-51
2022/06/13 08:26:59;;;;;;;;;;;;;;;25.06;65.18;95207.72;5075094;28;1037;-52
2022/06/13 08:29:25;;;;;;;;;;;;;;;25.07;62.88;95205.81;5074907;28;1985;-52
2022/06/13 08:31:51;;;;;;;;;;;;;;;25.04;62.52;95211.75;5075085;28;1092;-52
2022/06/13 08:34:17;;;;;;;;;;;;;;;25.07;63.54;95206.63;5075312;28;1131;-52
2022/06/13 08:36:43;;;;;;;;;;;;;;;25.13;66.52;95215.72;5075192;28;957;-52
2022/06/13 08:39:09;;;;;;;;;;;;;;;25.17;63.66;95213.31;5075079;28;1119;-52
2022/06/13 08:41:39;;;;;;;;;;;;;;;25.18;62.55;95212.25;5074708;28;1854;-52
2022/06/13 08:44:13;;;;;;;;;;;;;;;25.24;64.41;95209.38;5074812;28;1099;-52
2022/06/13 08:47:02;;;;;;;;;;;;;;;25.29;66.14;95203.16;5074869;28;1025;-52
2022/06/13 08:49:35;;;;;;;;;;;;;;;25.31;62.65;95201.00;5074864;28;1906;-52
2022/06/13 08:52:04;;;;;;;;;;;;;;;25.35;62.72;95198.56;5073759;28;1052;-51
2022/06/13 08:54:32;;;;;;;;;;;;;;;25.40;63.22;95202.22;5074351;28;1091;-52
2022/06/13 08:57:00;;;;;;;;;;;;;;;25.47;62.05;95204.75;5074746;28;1167;-52
2022/06/13 08:59:34;;;;;;;;;;;;;;;25.47;61.46;95207.47;5074735;28;966;-52
2022/06/13 09:02:06;;;;;;;;;;;;;;;25.40;61.08;95202.22;5074455;28;1844;-52
2022/06/13 09:04:51;;;;;;;;;;;;;;;25.41;61.03;95200.28;5074468;28;973;-52
2022/06/13 09:07:25;;;;;;;;;;;;;;;25.44;63.44;95206.09;5091558;28;1182;-51
2022/06/13 09:09:58;;;;;;;;;;;;;;;25.50;61.01;95202.34;5094841;28;1910;-52
2022/06/13 09:12:43;;;;;;;;;;;;;;;25.50;60.36;95199.59;5094547;28;977;-51
2022/06/13 09:15:13;;;;;;;;;;;;;;;25.48;60.20;95195.47;5094589;28;1047;-52
2022/06/13 09:17:44;;;;;;;;;;;;;;;25.52;61.21;95202.91;5094230;28;1067;-52
2022/06/13 09:20:16;;;;;;;;;;;;;;;25.57;60.04;95204.88;5094719;28;977;-52
2022/06/13 09:22:46;;;;;;;;;;;;;;;25.57;58.63;95195.84;5094340;28;1168;-52
2022/06/13 09:25:35;;;;;;;;;;;;;;;25.60;60.78;95203.56;5094290;28;978;-52
2022/06/13 09:28:13;;;;;;;;;;;;;;;25.79;65.50;95190.38;5083329;28;1914;-51
2022/06/13 09:30:52;;;;;;;;;;;;;;;25.88;61.76;95192.38;5094451;28;972;-52
2022/06/13 09:33:24;;;;;;;;;;;;;;;25.95;60.71;95188.66;5094007;28;1283;-51
2022/06/13 09:35:56;;;;;;;;;;;;;;;26.00;61.56;95188.72;5094288;28;1066;-51
2022/06/13 09:38:23;;;;;;;;;;;;;;;25.93;61.66;95183.41;5093926;28;954;-51
2022/06/13 09:40:52;;;;;;;;;;;;;;;25.94;59.07;95182.34;5094366;28;982;-51
2022/06/13 09:43:21;;;;;;;;;;;;;;;25.93;61.35;95180.69;5094074;28;978;-51
2022/06/13 09:45:47;;;;;;;;;;;;;;;25.97;59.59;95186.47;5094153;28;965;-52
2022/06/13 09:48:16;;;;;;;;;;;;;;;26.06;61.49;95185.75;5093836;28;1984;-51
2022/06/13 09:50:57;;;;;;;;;;;;;;;26.14;61.04;95183.66;5093836;28;1033;-51
2022/06/13 09:53:32;;;;;;;;;;;;;;;26.17;59.93;95178.47;5093449;28;1077;-51
2022/06/13 09:56:01;;;;;;;;;;;;;;;26.09;60.53;95170.72;5093870;28;1064;-51
2022/06/13 09:58:40;;;;;;;;;;;;;;;26.20;60.54;95169.75;5093690;28;1055;-51
2022/06/13 10:01:18;;;;;;;;;;;;;;;26.32;59.76;95172.31;5093860;28;1048;-51
2022/06/13 10:03:47;;;;;;;;;;;;;;;26.42;58.68;95166.09;5093115;28;1041;-52
2022/06/13 10:06:28;;;;;;;;;;;;;;;26.46;58.45;95168.09;5085175;28;1177;-52
2022/06/13 10:09:20;;;;;;;;;;;;;;;26.40;59.06;95168.28;5073181;28;1990;-51
2022/06/13 10:11:55;;;;;;;;;;;;;;;26.37;59.37;95163.31;5035311;28;1192;-52
2022/06/13 10:14:27;;;;;;;;;;;;;;;26.41;60.90;95167.22;5073172;28;1017;-52
2022/06/13 10:16:53;;;;;;;;;;;;;;;26.37;59.58;95160.56;5073694;28;1050;-52
2022/06/13 10:19:19;;;;;;;;;;;;;;;26.35;59.26;95163.59;5073099;28;1088;-52
2022/06/13 10:21:51;;;;;;;;;;;;;;;26.38;59.83;95160.31;5073342;28;989;-51
2022/06/13 10:24:20;;;;;;;;;;;;;;;26.37;59.10;95153.19;5072889;28;1063;-52
2022/06/13 10:26:59;;;;;;;;;;;;;;;26.35;58.98;95155.38;5073160;28;1088;-52
2022/06/13 10:29:43;;;;;;;;;;;;;;;26.39;59.36;95145.53;5073080;28;1914;-52
2022/06/13 10:32:16;;;;;;;;;;;;;;;26.53;58.89;95148.66;5073132;28;1227;-52
2022/06/13 10:34:55;;;;;;;;;;;;;;;26.53;60.48;95139.63;5072919;28;1203;-52
2022/06/13 10:37:36;;;;;;;;;;;;;;;26.49;59.86;95136.56;5073210;28;1033;-51
2022/06/13 10:40:04;;;;;;;;;;;;;;;26.56;61.37;95133.59;5072970;28;1033;-52
2022/06/13 10:42:32;;;;;;;;;;;;;;;26.57;61.66;95130.59;5073213;28;1200;-52
2022/06/13 10:44:58;;;;;;;;;;;;;;;26.63;60.86;95129.56;5073438;28;960;-52
2022/06/13 10:47:37;;;;;;;;;;;;;;;26.78;61.46;95128.03;5072925;28;987;-51
2022/06/13 10:50:07;;;;;;;;;;;;;;;26.81;59.76;95122.03;5072884;28;1017;-52
2022/06/13 10:52:36;;;;;;;;;;;;;;;26.78;59.62;95126.13;5072961;28;1068;-51
2022/06/13 10:55:08;;;;;;;;;;;;;;;26.53;59.65;95121.25;5072753;28;941;-51
2022/06/13 10:57:38;;;;;;;;;;;;;;;26.53;59.31;95123.16;5072887;28;1072;-52
2022/06/13 11:00:21;;;;;;;;;;;;;;;26.56;57.56;95122.63;5072748;28;1007;-52
2022/06/13 11:02:48;;;;;;;;;;;;;;;26.61;57.26;95115.28;5055199;28;1029;-52
2022/06/13 11:05:16;;;;;;;;;;;;;;;26.72;60.33;95112.66;5073004;28;1170;-52
2022/06/13 11:07:48;;;;;;;;;;;;;;;26.61;57.07;95103.50;5092963;28;1906;-52
2022/06/13 11:10:37;;;;;;;;;;;;;;;26.72;57.71;95101.69;5092926;28;1107;-52
2022/06/13 11:13:05;;;;;;;;;;;;;;;26.78;54.35;95100.63;5082712;28;1347;-51
2022/06/13 11:24:22;;;;;;;;;;;;;;;26.76;57.68;95072.63;5096279;28;1915;-51
2022/06/13 11:29:35;;;;;;;;;;;;;;;26.84;56.10;95067.47;5096605;28;1975;-51
2022/06/13 11:32:04;;;;;;;;;;;;;;;26.81;56.55;95058.94;5096436;28;1853;-52
2022/06/13 11:34:38;;;;;;;;;;;;;;;26.93;58.62;95064.22;5096528;28;1032;-52
2022/06/13 11:37:13;;;;;;;;;;;;;;;27.14;58.58;95054.16;5096571;28;1064;-51
2022/06/13 11:39:41;;;;;;;;;;;;;;;27.19;57.77;95049.53;5096199;28;1052;-51
2022/06/13 11:42:13;;;;;;;;;;;;;;;27.06;55.30;95050.84;5096689;28;1200;-51
2022/06/13 11:44:41;;;;;;;;;;;;;;;27.13;55.99;95050.59;5096287;28;1000;-51
2022/06/13 11:47:07;;;;;;;;;;;;;;;27.23;56.75;95060.81;5096287;28;1080;-51
2022/06/13 11:49:36;;;;;;;;;;;;;;;27.26;55.66;95054.78;5095899;28;2061;-52
2022/06/13 11:52:06;;;;;;;;;;;;;;;27.26;56.15;95049.28;5096320;28;957;-52
2022/06/13 11:54:35;;;;;;;;;;;;;;;27.30;51.91;95044.94;5095653;28;1013;-52
2022/06/13 11:57:27;;;;;;;;;;;;;;;27.16;54.06;95050.06;5096484;28;1053;-51
2022/06/13 11:59:56;;;;;;;;;;;;;;;26.84;54.67;95047.44;5092294;28;1117;-52
2022/06/13 12:02:24;;;;;;;;;;;;;;;26.66;56.72;95045.97;5096042;28;953;-51
2022/06/13 12:04:54;;;;;;;;;;;;;;;26.33;53.70;95036.94;5095755;28;1187;-51
2022/06/13 12:07:30;;;;;;;;;;;;;;;26.14;53.45;95033.78;5078324;28;1166;-51
2022/06/13 12:10:00;;;;;;;;;;;;;;;26.33;53.84;95030.63;5075581;28;1969;-51
2022/06/13 12:12:40;;;;;;;;;;;;;;;26.62;54.28;95026.47;5075579;28;963;-51
2022/06/13 12:15:09;;;;;;;;;;;;;;;26.76;55.72;95017.78;5075326;28;1076;-52
2022/06/13 12:17:41;;;;;;;;;;;;;;;26.87;54.32;95019.47;5075616;28;1084;-51
2022/06/13 12:20:10;;;;;;;;;;;;;;;27.07;54.12;95002.28;5075466;28;1040;-51
2022/06/13 12:22:42;;;;;;;;;;;;;;;27.24;52.77;95002.91;5075288;28;1041;-52
2022/06/13 12:25:30;;;;;;;;;;;;;;;27.28;54.10;95003.22;5075036;28;1011;-52
2022/06/13 12:28:14;;;;;;;;;;;;;;;27.33;54.79;95011.44;5075261;28;1909;-52
2022/06/13 12:30:40;;;;;;;;;;;;;;;27.37;53.18;94998.81;5074976;28;1087;-52
2022/06/13 12:33:12;;;;;;;;;;;;;;;27.44;52.45;95012.31;5075129;28;1077;-52
2022/06/13 12:35:59;;;;;;;;;;;;;;;27.46;52.26;95013.69;5075017;28;992;-52
2022/06/13 12:38:25;;;;;;;;;;;;;;;27.55;53.44;95008.50;5024787;28;1419;-52
2022/06/13 12:41:03;;;;;;;;;;;;;;;27.66;51.27;95014.84;5075071;28;970;-51
2022/06/13 12:43:38;;;;;;;;;;;;;;;27.83;53.21;95009.06;5074889;28;1044;-52
2022/06/13 12:46:13;;;;;;;;;;;;;;;27.90;51.42;95004.16;5074828;28;1036;-52
2022/06/13 12:48:39;;;;;;;;;;;;;;;27.64;52.98;95012.34;5074653;28;1902;-51
2022/06/13 12:51:05;;;;;;;;;;;;;;;27.40;52.45;95001.03;5074677;28;1114;-51
2022/06/13 12:53:35;;;;;;;;;;;;;;;27.39;52.38;95004.06;5074477;28;1040;-52
2022/06/13 12:56:12;;;;;;;;;;;;;;;27.34;52.16;95001.28;5074667;28;1071;-52
2022/06/13 12:58:44;;;;;;;;;;;;;;;26.96;55.13;94997.84;5075119;28;1156;-51
2022/06/13 13:01:17;;;;;;;;;;;;;;;26.54;54.61;94999.53;5074446;28;1001;-51
2022/06/13 13:03:49;;;;;;;;;;;;;;;26.18;56.51;95004.78;5074683;28;994;-51
2022/06/13 13:06:36;;;;;;;;;;;;;;;25.94;56.26;95022.69;5083152;28;1178;-51
2022/06/13 13:09:11;;;;;;;;;;;;;;;25.66;60.54;95030.88;5094780;28;1913;-51
2022/06/13 13:11:40;;;;;;;;;;;;;;;25.36;60.61;95033.28;5094384;28;985;-51
2022/06/13 13:14:11;;;;;;;;;;;;;;;24.75;61.32;95045.91;5094894;28;968;-51
2022/06/13 13:16:49;;;;;;;;;;;;;;;24.27;63.10;95052.03;5094512;28;1021;-51
2022/06/13 13:22:49;;;;;;;;;;;;;;;24.34;60.40;95055.44;5094191;28;691;-51
2022/06/13 13:25:15;;;;;;;;;;;;;;;24.55;60.55;95059.31;5094194;28;1029;-51
2022/06/13 13:27:55;;;;;;;;;;;;;;;24.78;59.44;95060.19;5094171;28;1987;-52
2022/06/13 13:30:26;;;;;;;;;;;;;;;24.85;57.14;95063.53;5094320;28;1020;-51
2022/06/13 13:33:08;;;;;;;;;;;;;;;24.84;56.95;95067.38;5094114;28;1206;-51
2022/06/13 13:35:54;;;;;;;;;;;;;;;24.77;57.14;95070.28;5094327;28;1039;-51
2022/06/13 13:38:25;;;;;;;;;;;;;;;24.84;55.80;95064.63;5093395;28;1098;-51
2022/06/13 13:40:58;;;;;;;;;;;;;;;24.80;56.45;95056.13;5094188;28;1080;-51
2022/06/13 13:43:47;;;;;;;;;;;;;;;24.94;53.26;95031.94;5094152;28;977;-51
2022/06/13 13:46:13;;;;;;;;;;;;;;;25.01;52.17;95027.13;5094091;28;957;-52
2022/06/13 13:48:51;;;;;;;;;;;;;;;25.17;53.29;95019.09;5094201;28;1984;-52
2022/06/13 13:51:23;;;;;;;;;;;;;;;25.28;52.26;95016.25;5093722;28;1096;-51
2022/06/13 13:53:53;;;;;;;;;;;;;;;25.37;52.76;95010.34;5093710;28;1049;-51
2022/06/13 13:56:31;;;;;;;;;;;;;;;25.40;51.42;95007.91;5093956;28;1057;-51
2022/06/13 13:58:59;;;;;;;;;;;;;;;25.35;53.28;95017.97;5093974;28;970;-51
2022/06/13 14:01:37;;;;;;;;;;;;;;;25.17;52.95;95016.34;5093551;28;1103;-51
2022/06/13 14:04:11;;;;;;;;;;;;;;;25.03;53.92;95024.13;5093629;28;1020;-51
2022/06/13 14:06:44;;;;;;;;;;;;;;;24.79;53.91;95024.38;5081873;28;1137;-51